sensor_id;sensor_type;location;lat;lon;timestamp;pressure;altitude;pressure_sealevel;temperature;humidity
74675;BME280;63200;48.810;12.352;2023-02-28T00:02:14;98177.34;;;-3.14;62.31
74675;BME280;63200;48.810;12.352;2023-02-28T00:04:39;98194.31;;;-3.01;62.42
74675;BME280;63200;48.810;12.352;2023-02-28T00:07:04;98198.94;;;-3.18;62.63
74675;BME280;63200;48.810;12.352;2023-02-28T00:09:30;98196.25;;;-3.09;62.40
74675;BME280;63200;48.810;12.352;2023-02-28T00:11:55;98196.13;;;-3.16;62.87
74675;BME280;63200;48.810;12.352;2023-02-28T00:14:20;98189.59;;;-2.90;62.78
74675;BME280;63200;48.810;12.352;2023-02-28T00:16:46;98168.91;;;-3.18;62.71
74675;BME280;63200;48.810;12.352;2023-02-28T00:19:11;98179.44;;;-3.25;63.29
74675;BME280;63200;48.810;12.352;2023-02-28T00:21:38;98186.56;;;-3.25;63.42
74675;BME280;63200;48.810;12.352;2023-02-28T00:24:06;98182.78;;;-3.31;63.73
74675;BME280;63200;48.810;12.352;2023-02-28T00:26:31;98188.28;;;-3.32;63.68
74675;BME280;63200;48.810;12.352;2023-02-28T00:28:56;98173.22;;;-3.40;63.52
74675;BME280;63200;48.810;12.352;2023-02-28T00:31:22;98177.94;;;-3.27;63.16
74675;BME280;63200;48.810;12.352;2023-02-28T00:33:47;98182.34;;;-3.35;63.10
74675;BME280;63200;48.810;12.352;2023-02-28T00:36:13;98179.69;;;-3.35;63.12
74675;BME280;63200;48.810;12.352;2023-02-28T00:38:40;98175.25;;;-3.42;63.05
74675;BME280;63200;48.810;12.352;2023-02-28T00:41:06;98121.22;;;-3.73;63.69
74675;BME280;63200;48.810;12.352;2023-02-28T00:43:33;98172.13;;;-3.46;63.11
74675;BME280;63200;48.810;12.352;2023-02-28T00:46:00;98134.31;;;-3.71;63.24
74675;BME280;63200;48.810;12.352;2023-02-28T00:48:25;98155.28;;;-3.61;63.30
74675;BME280;63200;48.810;12.352;2023-02-28T00:50:50;98168.97;;;-3.49;63.88
74675;BME280;63200;48.810;12.352;2023-02-28T00:53:16;98161.91;;;-3.57;63.60
74675;BME280;63200;48.810;12.352;2023-02-28T00:55:41;98176.75;;;-3.48;63.95
74675;BME280;63200;48.810;12.352;2023-02-28T00:58:06;98137.28;;;-3.66;62.91
74675;BME280;63200;48.810;12.352;2023-02-28T01:00:32;98166.44;;;-3.43;63.52
74675;BME280;63200;48.810;12.352;2023-02-28T01:02:57;98130.47;;;-3.69;63.34
74675;BME280;63200;48.810;12.352;2023-02-28T01:05:22;98162.78;;;-3.42;63.25
74675;BME280;63200;48.810;12.352;2023-02-28T01:07:48;98134.63;;;-3.66;63.68
74675;BME280;63200;48.810;12.352;2023-02-28T01:10:13;98155.91;;;-3.28;62.80
74675;BME280;63200;48.810;12.352;2023-02-28T01:12:38;98160.69;;;-3.46;63.25
74675;BME280;63200;48.810;12.352;2023-02-28T01:15:04;98094.50;;;-3.94;63.80
74675;BME280;63200;48.810;12.352;2023-02-28T01:17:29;98156.44;;;-3.56;63.87
74675;BME280;63200;48.810;12.352;2023-02-28T01:19:55;98160.09;;;-3.57;63.76
74675;BME280;63200;48.810;12.352;2023-02-28T01:22:21;98145.94;;;-3.72;64.69
74675;BME280;63200;48.810;12.352;2023-02-28T01:24:46;98160.97;;;-3.64;64.69
74675;BME280;63200;48.810;12.352;2023-02-28T01:27:11;98147.47;;;-3.78;64.68
74675;BME280;63200;48.810;12.352;2023-02-28T01:29:36;98129.53;;;-3.99;65.04
74675;BME280;63200;48.810;12.352;2023-02-28T01:32:02;98134.53;;;-4.04;65.03
74675;BME280;63200;48.810;12.352;2023-02-28T01:34:27;98154.19;;;-3.90;65.01
74675;BME280;63200;48.810;12.352;2023-02-28T01:36:53;98153.81;;;-3.87;65.46
74675;BME280;63200;48.810;12.352;2023-02-28T01:39:18;98155.81;;;-3.89;65.07
74675;BME280;63200;48.810;12.352;2023-02-28T01:41:43;98128.03;;;-4.02;65.17
74675;BME280;63200;48.810;12.352;2023-02-28T01:47:11;98147.72;;;-3.96;66.08
74675;BME280;63200;48.810;12.352;2023-02-28T01:49:37;98100.31;;;-4.22;65.77
74675;BME280;63200;48.810;12.352;2023-02-28T01:52:03;98083.28;;;-4.28;65.64
74675;BME280;63200;48.810;12.352;2023-02-28T01:54:33;98145.50;;;-3.84;65.26
74675;BME280;63200;48.810;12.352;2023-02-28T01:57:21;98142.66;;;-3.82;65.77
74675;BME280;63200;48.810;12.352;2023-02-28T01:59:53;98117.91;;;-3.98;65.41
74675;BME280;63200;48.810;12.352;2023-02-28T02:02:21;98143.91;;;-3.93;66.32
74675;BME280;63200;48.810;12.352;2023-02-28T02:05:05;98130.75;;;-3.87;66.45
74675;BME280;63200;48.810;12.352;2023-02-28T02:07:34;98137.25;;;-3.89;66.40
74675;BME280;63200;48.810;12.352;2023-02-28T02:16:03;98134.47;;;-3.96;65.96
74675;BME280;63200;48.810;12.352;2023-02-28T02:18:40;98138.53;;;-4.08;66.42
74675;BME280;63200;48.810;12.352;2023-02-28T02:35:16;98129.00;;;-4.26;67.46
74675;BME280;63200;48.810;12.352;2023-02-28T02:38:14;98108.63;;;-4.25;66.79
74675;BME280;63200;48.810;12.352;2023-02-28T02:40:54;98132.66;;;-4.27;67.11
74675;BME280;63200;48.810;12.352;2023-02-28T02:43:26;98131.44;;;-4.16;67.01
74675;BME280;63200;48.810;12.352;2023-02-28T02:45:56;98110.94;;;-4.62;67.14
74675;BME280;63200;48.810;12.352;2023-02-28T02:48:27;98113.25;;;-4.67;67.69
74675;BME280;63200;48.810;12.352;2023-02-28T02:50:56;98128.75;;;-4.47;67.70
74675;BME280;63200;48.810;12.352;2023-02-28T02:53:33;98141.84;;;-4.46;66.96
74675;BME280;63200;48.810;12.352;2023-02-28T02:56:01;98135.47;;;-4.76;67.66
74675;BME280;63200;48.810;12.352;2023-02-28T02:58:34;98141.13;;;-4.79;68.55
74675;BME280;63200;48.810;12.352;2023-02-28T03:01:01;98144.63;;;-4.87;68.69
74675;BME280;63200;48.810;12.352;2023-02-28T03:03:29;98121.34;;;-5.00;68.60
74675;BME280;63200;48.810;12.352;2023-02-28T03:05:58;98144.31;;;-4.84;68.15
74675;BME280;63200;48.810;12.352;2023-02-28T03:08:24;98121.13;;;-4.90;68.69
74675;BME280;63200;48.810;12.352;2023-02-28T03:10:52;98147.34;;;-4.56;67.89
74675;BME280;63200;48.810;12.352;2023-02-28T03:27:27;98146.28;;;-4.86;68.13
74675;BME280;63200;48.810;12.352;2023-02-28T03:30:09;98145.66;;;-5.05;68.12
74675;BME280;63200;48.810;12.352;2023-02-28T03:32:40;98139.22;;;-5.10;69.04
74675;BME280;63200;48.810;12.352;2023-02-28T03:35:17;98142.19;;;-5.05;69.09
74675;BME280;63200;48.810;12.352;2023-02-28T03:37:48;98141.72;;;-5.17;69.08
74675;BME280;63200;48.810;12.352;2023-02-28T03:40:19;98143.84;;;-5.21;69.53
74675;BME280;63200;48.810;12.352;2023-02-28T03:42:49;98141.88;;;-5.19;69.68
74675;BME280;63200;48.810;12.352;2023-02-28T03:45:19;98110.31;;;-5.45;70.03
74675;BME280;63200;48.810;12.352;2023-02-28T03:47:53;98144.03;;;-5.30;69.93
74675;BME280;63200;48.810;12.352;2023-02-28T03:50:22;98142.38;;;-5.31;69.70
74675;BME280;63200;48.810;12.352;2023-02-28T03:52:53;98134.13;;;-5.37;69.70
74675;BME280;63200;48.810;12.352;2023-02-28T03:55:20;98130.97;;;-5.40;69.94
74675;BME280;63200;48.810;12.352;2023-02-28T04:00:33;98145.53;;;-5.20;70.39
74675;BME280;63200;48.810;12.352;2023-02-28T04:02:59;98144.84;;;-5.22;70.07
74675;BME280;63200;48.810;12.352;2023-02-28T04:05:25;98143.53;;;-5.26;70.64
74675;BME280;63200;48.810;12.352;2023-02-28T04:07:52;98143.34;;;-5.24;70.53
74675;BME280;63200;48.810;12.352;2023-02-28T04:10:17;98134.63;;;-5.33;70.47
74675;BME280;63200;48.810;12.352;2023-02-28T04:12:43;98132.78;;;-5.41;70.73
74675;BME280;63200;48.810;12.352;2023-02-28T04:15:08;98139.56;;;-5.46;70.98
74675;BME280;63200;48.810;12.352;2023-02-28T04:17:35;98137.94;;;-5.47;70.52
74675;BME280;63200;48.810;12.352;2023-02-28T04:20:00;98137.25;;;-5.49;70.75
74675;BME280;63200;48.810;12.352;2023-02-28T04:22:26;98144.38;;;-5.50;70.74
74675;BME280;63200;48.810;12.352;2023-02-28T04:24:51;98146.69;;;-5.55;71.03
74675;BME280;63200;48.810;12.352;2023-02-28T04:27:18;98135.94;;;-5.62;71.03
74675;BME280;63200;48.810;12.352;2023-02-28T04:29:44;98119.06;;;-5.77;71.06
74675;BME280;63200;48.810;12.352;2023-02-28T04:32:10;98142.38;;;-5.64;71.06
74675;BME280;63200;48.810;12.352;2023-02-28T04:34:35;98125.50;;;-5.80;70.79
74675;BME280;63200;48.810;12.352;2023-02-28T04:37:01;98130.78;;;-5.72;71.34
74675;BME280;63200;48.810;12.352;2023-02-28T04:39:28;98136.41;;;-5.66;70.95
74675;BME280;63200;48.810;12.352;2023-02-28T04:41:53;98133.28;;;-5.62;71.15
74675;BME280;63200;48.810;12.352;2023-02-28T04:44:19;98135.25;;;-5.56;71.23
74675;BME280;63200;48.810;12.352;2023-02-28T04:46:47;98131.63;;;-5.46;70.79
74675;BME280;63200;48.810;12.352;2023-02-28T04:49:13;98133.63;;;-5.40;70.65
74675;BME280;63200;48.810;12.352;2023-02-28T04:51:38;98133.44;;;-5.39;70.68
74675;BME280;63200;48.810;12.352;2023-02-28T04:54:04;98133.47;;;-5.30;70.41
74675;BME280;63200;48.810;12.352;2023-02-28T04:56:30;98137.88;;;-5.23;70.80
74675;BME280;63200;48.810;12.352;2023-02-28T04:58:55;98143.50;;;-5.18;70.75
74675;BME280;63200;48.810;12.352;2023-02-28T05:01:31;98141.03;;;-5.11;70.28
74675;BME280;63200;48.810;12.352;2023-02-28T05:04:00;98141.69;;;-5.09;69.92
74675;BME280;63200;48.810;12.352;2023-02-28T05:06:28;98140.00;;;-5.02;69.86
74675;BME280;63200;48.810;12.352;2023-02-28T05:08:54;98118.38;;;-5.22;69.91
74675;BME280;63200;48.810;12.352;2023-02-28T05:11:31;98144.97;;;-5.07;70.00
74675;BME280;63200;48.810;12.352;2023-02-28T05:14:01;98150.78;;;-5.03;70.34
74675;BME280;63200;48.810;12.352;2023-02-28T05:16:26;98160.88;;;-5.07;70.03
74675;BME280;63200;48.810;12.352;2023-02-28T05:18:52;98154.25;;;-5.11;69.49
74675;BME280;63200;48.810;12.352;2023-02-28T05:21:27;98155.75;;;-5.08;69.03
74675;BME280;63200;48.810;12.352;2023-02-28T05:23:53;98153.78;;;-5.14;69.45
74675;BME280;63200;48.810;12.352;2023-02-28T05:26:19;98155.59;;;-5.23;69.45
74675;BME280;63200;48.810;12.352;2023-02-28T05:28:44;98161.25;;;-5.26;69.54
74675;BME280;63200;48.810;12.352;2023-02-28T05:31:10;98120.88;;;-5.53;69.75
74675;BME280;63200;48.810;12.352;2023-02-28T05:33:35;98162.56;;;-5.30;69.75
74675;BME280;63200;48.810;12.352;2023-02-28T05:36:01;98164.53;;;-5.32;69.87
74675;BME280;63200;48.810;12.352;2023-02-28T05:38:26;98155.44;;;-5.46;69.72
74675;BME280;63200;48.810;12.352;2023-02-28T05:40:52;98163.38;;;-5.46;70.29
74675;BME280;63200;48.810;12.352;2023-02-28T05:43:18;98163.38;;;-5.55;70.22
74675;BME280;63200;48.810;12.352;2023-02-28T05:45:43;98166.53;;;-5.51;70.33
74675;BME280;63200;48.810;12.352;2023-02-28T05:48:09;98168.84;;;-5.56;70.09
74675;BME280;63200;48.810;12.352;2023-02-28T05:50:34;98178.78;;;-5.58;70.42
74675;BME280;63200;48.810;12.352;2023-02-28T05:52:59;98179.59;;;-5.58;70.46
74675;BME280;63200;48.810;12.352;2023-02-28T05:55:25;98178.78;;;-5.58;70.52
74675;BME280;63200;48.810;12.352;2023-02-28T05:57:50;98177.59;;;-5.56;70.39
74675;BME280;63200;48.810;12.352;2023-02-28T06:00:16;98183.56;;;-5.54;70.70
74675;BME280;63200;48.810;12.352;2023-02-28T06:02:43;98180.75;;;-5.52;70.45
74675;BME280;63200;48.810;12.352;2023-02-28T06:05:16;98174.47;;;-5.51;70.19
74675;BME280;63200;48.810;12.352;2023-02-28T06:07:42;98171.81;;;-5.51;70.15
74675;BME280;63200;48.810;12.352;2023-02-28T06:10:09;98183.06;;;-5.49;69.83
74675;BME280;63200;48.810;12.352;2023-02-28T06:12:35;98182.91;;;-5.47;70.22
74675;BME280;63200;48.810;12.352;2023-02-28T06:15:00;98172.81;;;-5.44;70.12
74675;BME280;63200;48.810;12.352;2023-02-28T06:17:25;98182.41;;;-5.26;69.83
74675;BME280;63200;48.810;12.352;2023-02-28T06:19:51;98188.16;;;-4.81;70.65
74675;BME280;63200;48.810;12.352;2023-02-28T06:22:16;98187.38;;;-3.71;71.38
74675;BME280;63200;48.810;12.352;2023-02-28T06:24:41;98188.06;;;-3.23;71.80
74675;BME280;63200;48.810;12.352;2023-02-28T06:27:06;98186.22;;;-2.84;70.07
74675;BME280;63200;48.810;12.352;2023-02-28T06:29:33;98189.34;;;-2.21;66.89
74675;BME280;63200;48.810;12.352;2023-02-28T06:31:59;98196.31;;;-1.68;60.14
74675;BME280;63200;48.810;12.352;2023-02-28T06:34:24;98195.47;;;-1.32;59.89
74675;BME280;63200;48.810;12.352;2023-02-28T06:36:50;98197.16;;;-0.74;59.34
74675;BME280;63200;48.810;12.352;2023-02-28T06:39:17;98199.09;;;0.09;57.54
74675;BME280;63200;48.810;12.352;2023-02-28T06:41:42;98200.13;;;1.03;56.75
74675;BME280;63200;48.810;12.352;2023-02-28T06:44:17;98205.81;;;1.80;54.56
74675;BME280;63200;48.810;12.352;2023-02-28T06:46:43;98203.28;;;2.51;49.78
74675;BME280;63200;48.810;12.352;2023-02-28T06:49:10;98204.22;;;3.02;48.00
74675;BME280;63200;48.810;12.352;2023-02-28T06:51:37;98203.88;;;3.42;46.55
74675;BME280;63200;48.810;12.352;2023-02-28T06:54:03;98205.41;;;3.75;44.65
74675;BME280;63200;48.810;12.352;2023-02-28T06:56:28;98179.50;;;3.44;45.30
74675;BME280;63200;48.810;12.352;2023-02-28T06:58:54;98185.06;;;3.86;44.47
74675;BME280;63200;48.810;12.352;2023-02-28T07:01:19;98213.47;;;4.31;43.06
74675;BME280;63200;48.810;12.352;2023-02-28T07:03:45;98205.88;;;4.28;43.76
74675;BME280;63200;48.810;12.352;2023-02-28T07:06:11;98206.16;;;4.38;41.42
74675;BME280;63200;48.810;12.352;2023-02-28T07:08:36;98210.16;;;3.98;43.59
74675;BME280;63200;48.810;12.352;2023-02-28T07:11:02;98183.34;;;4.10;41.65
74675;BME280;63200;48.810;12.352;2023-02-28T07:13:28;98194.84;;;3.99;42.22
74675;BME280;63200;48.810;12.352;2023-02-28T07:15:58;98173.31;;;4.36;40.68
74675;BME280;63200;48.810;12.352;2023-02-28T07:18:24;98213.06;;;4.34;42.07
74675;BME280;63200;48.810;12.352;2023-02-28T07:20:50;98217.44;;;3.73;43.05
74675;BME280;63200;48.810;12.352;2023-02-28T07:23:15;98220.44;;;3.83;41.59
74675;BME280;63200;48.810;12.352;2023-02-28T07:25:41;98145.47;;;3.19;43.21
74675;BME280;63200;48.810;12.352;2023-02-28T07:28:06;98221.13;;;4.15;42.56
74675;BME280;63200;48.810;12.352;2023-02-28T07:30:31;98219.63;;;4.20;42.27
74675;BME280;63200;48.810;12.352;2023-02-28T07:32:56;98227.50;;;4.52;42.73
74675;BME280;63200;48.810;12.352;2023-02-28T07:35:22;98225.34;;;4.23;42.49
74675;BME280;63200;48.810;12.352;2023-02-28T07:37:48;98214.66;;;4.35;42.43
74675;BME280;63200;48.810;12.352;2023-02-28T07:40:13;98225.78;;;4.88;40.64
74675;BME280;63200;48.810;12.352;2023-02-28T07:42:42;98222.91;;;5.13;41.16
74675;BME280;63200;48.810;12.352;2023-02-28T07:45:08;98216.75;;;5.36;39.89
74675;BME280;63200;48.810;12.352;2023-02-28T07:47:39;98226.38;;;5.32;38.07
74675;BME280;63200;48.810;12.352;2023-02-28T07:50:06;98226.22;;;5.27;39.80
74675;BME280;63200;48.810;12.352;2023-02-28T07:52:31;98228.63;;;5.05;38.89
74675;BME280;63200;48.810;12.352;2023-02-28T07:54:57;98207.28;;;4.49;40.63
74675;BME280;63200;48.810;12.352;2023-02-28T07:57:23;98175.63;;;4.14;40.14
74675;BME280;63200;48.810;12.352;2023-02-28T07:59:48;98227.81;;;4.43;40.36
74675;BME280;63200;48.810;12.352;2023-02-28T08:02:15;98227.28;;;4.53;40.12
74675;BME280;63200;48.810;12.352;2023-02-28T08:04:42;98223.38;;;5.10;39.33
74675;BME280;63200;48.810;12.352;2023-02-28T08:07:07;98222.56;;;4.79;39.43
74675;BME280;63200;48.810;12.352;2023-02-28T08:09:33;98168.53;;;3.27;41.67
74675;BME280;63200;48.810;12.352;2023-02-28T08:11:59;98221.41;;;3.20;42.79
74675;BME280;63200;48.810;12.352;2023-02-28T08:14:24;98230.78;;;2.78;43.79
74675;BME280;63200;48.810;12.352;2023-02-28T08:16:49;98224.69;;;3.47;41.77
74675;BME280;63200;48.810;12.352;2023-02-28T08:19:15;98201.88;;;3.38;42.26
74675;BME280;63200;48.810;12.352;2023-02-28T08:21:40;98211.41;;;4.14;40.68
74675;BME280;63200;48.810;12.352;2023-02-28T08:24:06;98229.47;;;4.26;41.62
74675;BME280;63200;48.810;12.352;2023-02-28T08:26:32;98230.22;;;3.96;39.56
74675;BME280;63200;48.810;12.352;2023-02-28T08:28:57;98233.00;;;3.39;42.42
74675;BME280;63200;48.810;12.352;2023-02-28T08:31:23;98227.84;;;3.62;41.94
74675;BME280;63200;48.810;12.352;2023-02-28T08:33:49;98228.94;;;3.36;41.71
74675;BME280;63200;48.810;12.352;2023-02-28T08:36:16;98229.72;;;3.11;42.36
74675;BME280;63200;48.810;12.352;2023-02-28T08:38:42;98211.22;;;3.03;41.46
74675;BME280;63200;48.810;12.352;2023-02-28T08:41:09;98242.34;;;3.04;41.93
74675;BME280;63200;48.810;12.352;2023-02-28T08:43:36;98240.56;;;2.98;42.44
74675;BME280;63200;48.810;12.352;2023-02-28T08:46:01;98251.19;;;2.79;43.14
74675;BME280;63200;48.810;12.352;2023-02-28T08:48:28;98244.97;;;2.40;43.33
74675;BME280;63200;48.810;12.352;2023-02-28T08:50:58;98243.91;;;2.48;42.92
74675;BME280;63200;48.810;12.352;2023-02-28T08:53:24;98210.41;;;1.33;45.45
74675;BME280;63200;48.810;12.352;2023-02-28T08:56:08;98245.09;;;2.13;44.55
74675;BME280;63200;48.810;12.352;2023-02-28T08:58:34;98243.94;;;2.41;43.92
74675;BME280;63200;48.810;12.352;2023-02-28T09:01:00;98246.06;;;2.26;44.17
74675;BME280;63200;48.810;12.352;2023-02-28T09:03:26;98205.81;;;1.87;44.88
74675;BME280;63200;48.810;12.352;2023-02-28T09:05:57;98253.47;;;2.76;43.38
74675;BME280;63200;48.810;12.352;2023-02-28T09:08:24;98204.34;;;2.43;43.32
74675;BME280;63200;48.810;12.352;2023-02-28T09:10:50;98255.59;;;2.99;42.91
74675;BME280;63200;48.810;12.352;2023-02-28T09:13:16;98251.28;;;3.30;42.19
74675;BME280;63200;48.810;12.352;2023-02-28T09:15:42;98253.09;;;3.36;42.42
74675;BME280;63200;48.810;12.352;2023-02-28T09:18:07;98234.06;;;3.38;41.57
74675;BME280;63200;48.810;12.352;2023-02-28T09:20:33;98248.81;;;3.28;41.76
74675;BME280;63200;48.810;12.352;2023-02-28T09:22:58;98245.47;;;2.69;44.26
74675;BME280;63200;48.810;12.352;2023-02-28T09:25:23;98253.59;;;2.49;44.24
74675;BME280;63200;48.810;12.352;2023-02-28T09:27:48;98243.59;;;3.08;43.04
74675;BME280;63200;48.810;12.352;2023-02-28T09:30:14;98242.34;;;3.04;42.49
74675;BME280;63200;48.810;12.352;2023-02-28T09:32:40;98210.03;;;3.49;42.31
74675;BME280;63200;48.810;12.352;2023-02-28T09:35:05;98241.31;;;3.81;41.10
74675;BME280;63200;48.810;12.352;2023-02-28T09:37:31;98239.47;;;4.00;41.70
74675;BME280;63200;48.810;12.352;2023-02-28T09:39:57;98244.75;;;3.70;41.92
74675;BME280;63200;48.810;12.352;2023-02-28T09:42:29;98242.06;;;3.70;41.29
74675;BME280;63200;48.810;12.352;2023-02-28T09:44:56;98252.44;;;3.84;42.27
74675;BME280;63200;48.810;12.352;2023-02-28T09:47:41;98252.66;;;3.83;42.17
74675;BME280;63200;48.810;12.352;2023-02-28T09:50:22;98248.03;;;3.90;41.61
74675;BME280;63200;48.810;12.352;2023-02-28T09:52:53;98237.69;;;3.50;42.07
74675;BME280;63200;48.810;12.352;2023-02-28T09:57:45;98251.53;;;3.72;40.75
74675;BME280;63200;48.810;12.352;2023-02-28T10:00:24;98254.44;;;3.71;43.08
74675;BME280;63200;48.810;12.352;2023-02-28T10:03:04;98228.75;;;2.99;41.82
74675;BME280;63200;48.810;12.352;2023-02-28T10:05:50;98230.88;;;3.47;41.60
74675;BME280;63200;48.810;12.352;2023-02-28T10:08:29;98261.78;;;3.57;41.23
74675;BME280;63200;48.810;12.352;2023-02-28T10:11:07;98262.63;;;3.57;43.78
74675;BME280;63200;48.810;12.352;2023-02-28T10:13:36;98256.22;;;3.77;41.79
74675;BME280;63200;48.810;12.352;2023-02-28T10:16:16;98214.31;;;3.00;42.52
74675;BME280;63200;48.810;12.352;2023-02-28T10:18:48;98263.88;;;3.55;41.17
74675;BME280;63200;48.810;12.352;2023-02-28T10:21:21;98206.78;;;3.84;40.97
74675;BME280;63200;48.810;12.352;2023-02-28T10:23:53;98262.97;;;3.86;42.01
74675;BME280;63200;48.810;12.352;2023-02-28T10:26:22;98246.69;;;3.81;42.70
74675;BME280;63200;48.810;12.352;2023-02-28T10:28:51;98262.41;;;3.59;41.99
74675;BME280;63200;48.810;12.352;2023-02-28T10:31:20;98273.06;;;3.65;41.87
74675;BME280;63200;48.810;12.352;2023-02-28T10:33:45;98262.84;;;4.37;41.07
74675;BME280;63200;48.810;12.352;2023-02-28T10:36:17;98234.13;;;3.56;40.50
74675;BME280;63200;48.810;12.352;2023-02-28T10:38:45;98241.78;;;3.53;43.00
74675;BME280;63200;48.810;12.352;2023-02-28T10:41:36;98266.63;;;3.73;41.45
74675;BME280;63200;48.810;12.352;2023-02-28T10:44:33;98275.19;;;3.82;41.45
74675;BME280;63200;48.810;12.352;2023-02-28T10:46:58;98004.84;;;2.07;41.74
74675;BME280;63200;48.810;12.352;2023-02-28T10:49:28;98269.50;;;3.72;40.35
74675;BME280;63200;48.810;12.352;2023-02-28T10:51:59;98263.38;;;4.08;41.81
74675;BME280;63200;48.810;12.352;2023-02-28T10:57:07;98249.38;;;4.74;43.27
74675;BME280;63200;48.810;12.352;2023-02-28T10:59:34;98230.22;;;4.33;39.84
74675;BME280;63200;48.810;12.352;2023-02-28T11:01:59;98217.22;;;4.11;41.29
74675;BME280;63200;48.810;12.352;2023-02-28T11:07:18;98228.19;;;4.28;40.03
74675;BME280;63200;48.810;12.352;2023-02-28T11:09:48;98257.50;;;4.48;42.86
74675;BME280;63200;48.810;12.352;2023-02-28T11:12:26;98258.13;;;4.13;41.12
74675;BME280;63200;48.810;12.352;2023-02-28T11:14:56;98251.13;;;4.31;42.18
74675;BME280;63200;48.810;12.352;2023-02-28T11:17:29;98251.25;;;4.36;41.13
74675;BME280;63200;48.810;12.352;2023-02-28T11:20:04;98248.25;;;4.44;41.62
74675;BME280;63200;48.810;12.352;2023-02-28T11:22:36;98240.38;;;4.12;43.89
74675;BME280;63200;48.810;12.352;2023-02-28T11:25:09;98244.41;;;4.22;41.77
74675;BME280;63200;48.810;12.352;2023-02-28T11:27:49;98248.50;;;4.43;42.15
74675;BME280;63200;48.810;12.352;2023-02-28T11:33:37;98240.03;;;4.76;40.61
74675;BME280;63200;48.810;12.352;2023-02-28T11:36:11;98242.31;;;5.03;42.89
74675;BME280;63200;48.810;12.352;2023-02-28T11:38:37;98201.75;;;4.44;42.22
74675;BME280;63200;48.810;12.352;2023-02-28T11:43:57;98211.41;;;3.96;43.80
74675;BME280;63200;48.810;12.352;2023-02-28T11:46:33;98241.06;;;4.26;42.99
74675;BME280;63200;48.810;12.352;2023-02-28T11:49:18;98233.78;;;4.45;41.28
74675;BME280;63200;48.810;12.352;2023-02-28T11:52:00;98201.25;;;4.16;43.61
74675;BME280;63200;48.810;12.352;2023-02-28T11:56:57;98216.16;;;4.31;43.15
74675;BME280;63200;48.810;12.352;2023-02-28T11:59:49;98237.56;;;4.56;42.92
74675;BME280;63200;48.810;12.352;2023-02-28T12:02:41;98230.63;;;4.48;40.14
74675;BME280;63200;48.810;12.352;2023-02-28T12:08:26;98230.91;;;5.31;41.01
74675;BME280;63200;48.810;12.352;2023-02-28T12:11:02;98224.94;;;5.29;41.73
74675;BME280;63200;48.810;12.352;2023-02-28T12:19:22;98219.09;;;5.44;40.04
74675;BME280;63200;48.810;12.352;2023-02-28T12:27:13;98197.81;;;5.55;40.47
74675;BME280;63200;48.810;12.352;2023-02-28T12:30:05;98209.88;;;6.11;38.77
74675;BME280;63200;48.810;12.352;2023-02-28T12:32:41;98188.28;;;6.11;37.76
74675;BME280;63200;48.810;12.352;2023-02-28T12:35:18;98201.06;;;6.04;39.03
74675;BME280;63200;48.810;12.352;2023-02-28T12:40:22;98171.09;;;5.17;40.72
74675;BME280;63200;48.810;12.352;2023-02-28T12:42:59;98202.97;;;6.04;38.59
74675;BME280;63200;48.810;12.352;2023-02-28T12:45:49;98191.94;;;6.46;36.77
74675;BME280;63200;48.810;12.352;2023-02-28T12:48:21;98196.09;;;6.65;36.62
74675;BME280;63200;48.810;12.352;2023-02-28T12:50:49;98191.44;;;7.07;36.52
74675;BME280;63200;48.810;12.352;2023-02-28T12:53:26;98195.91;;;6.14;37.57
74675;BME280;63200;48.810;12.352;2023-02-28T12:56:07;98156.16;;;6.10;38.64
74675;BME280;63200;48.810;12.352;2023-02-28T12:58:50;98182.03;;;6.23;39.83
74675;BME280;63200;48.810;12.352;2023-02-28T13:09:24;98191.34;;;6.03;39.84
74675;BME280;63200;48.810;12.352;2023-02-28T13:11:54;98158.97;;;5.91;40.87
74675;BME280;63200;48.810;12.352;2023-02-28T13:19:38;98189.97;;;5.65;39.52
74675;BME280;63200;48.810;12.352;2023-02-28T13:22:04;98185.28;;;5.60;39.77
74675;BME280;63200;48.810;12.352;2023-02-28T13:29:31;98144.25;;;6.34;39.50
74675;BME280;63200;48.810;12.352;2023-02-28T13:48:00;98140.47;;;6.07;39.41
74675;BME280;63200;48.810;12.352;2023-02-28T13:55:49;98177.31;;;6.42;39.65
74675;BME280;63200;48.810;12.352;2023-02-28T13:58:36;98187.84;;;6.03;40.05
74675;BME280;63200;48.810;12.352;2023-02-28T14:06:33;98175.88;;;5.27;41.97
74675;BME280;63200;48.810;12.352;2023-02-28T14:09:04;98176.66;;;4.92;42.39
74675;BME280;63200;48.810;12.352;2023-02-28T14:11:38;98183.25;;;5.08;43.14
74675;BME280;63200;48.810;12.352;2023-02-28T14:14:06;98180.13;;;5.71;41.79
74675;BME280;63200;48.810;12.352;2023-02-28T14:16:39;98180.09;;;5.94;42.01
74675;BME280;63200;48.810;12.352;2023-02-28T14:19:14;98178.97;;;5.55;43.13
74675;BME280;63200;48.810;12.352;2023-02-28T14:35:43;98188.41;;;6.16;42.20
74675;BME280;63200;48.810;12.352;2023-02-28T14:38:18;98174.50;;;5.72;43.13
74675;BME280;63200;48.810;12.352;2023-02-28T14:40:47;98168.38;;;5.06;44.66
74675;BME280;63200;48.810;12.352;2023-02-28T14:43:25;98186.72;;;4.97;46.71
74675;BME280;63200;48.810;12.352;2023-02-28T14:45:53;98182.91;;;5.16;45.21
74675;BME280;63200;48.810;12.352;2023-02-28T14:48:20;98180.28;;;4.98;45.46
74675;BME280;63200;48.810;12.352;2023-02-28T14:50:54;98178.72;;;4.78;45.29
74675;BME280;63200;48.810;12.352;2023-02-28T14:53:22;98181.31;;;4.55;45.42
74675;BME280;63200;48.810;12.352;2023-02-28T14:55:50;98185.56;;;4.62;45.72
74675;BME280;63200;48.810;12.352;2023-02-28T14:58:31;98172.88;;;4.51;45.78
74675;BME280;63200;48.810;12.352;2023-02-28T15:01:00;98178.97;;;4.46;46.37
74675;BME280;63200;48.810;12.352;2023-02-28T15:03:39;98175.31;;;4.41;47.41
74675;BME280;63200;48.810;12.352;2023-02-28T15:06:17;98184.34;;;4.46;45.57
74675;BME280;63200;48.810;12.352;2023-02-28T15:08:44;98179.19;;;4.45;46.25
74675;BME280;63200;48.810;12.352;2023-02-28T15:11:19;98186.44;;;4.26;45.85
74675;BME280;63200;48.810;12.352;2023-02-28T15:13:50;98194.50;;;4.26;46.03
74675;BME280;63200;48.810;12.352;2023-02-28T15:16:24;98175.13;;;4.24;46.30
74675;BME280;63200;48.810;12.352;2023-02-28T15:18:54;98191.38;;;4.47;45.35